sensor_id;sensor_type;location;lat;lon;timestamp;P1;durP1;ratioP1;P2;durP2;ratioP2
37781;SDS011;23621;50.878;4.584;2023-11-19T00:00:32;8.13;;;3.90;;
37781;SDS011;23621;50.878;4.584;2023-11-19T00:03:19;8.63;;;3.75;;
37781;SDS011;23621;50.878;4.584;2023-11-19T00:06:07;9.93;;;3.90;;
37781;SDS011;23621;50.878;4.584;2023-11-19T00:08:56;9.15;;;3.97;;
37781;SDS011;23621;50.878;4.584;2023-11-19T00:11:44;7.18;;;3.80;;
37781;SDS011;23621;50.878;4.584;2023-11-19T00:14:40;9.27;;;3.92;;
37781;SDS011;23621;50.878;4.584;2023-11-19T00:17:27;9.15;;;4.30;;
37781;SDS011;23621;50.878;4.584;2023-11-19T00:20:15;9.90;;;4.20;;
37781;SDS011;23621;50.878;4.584;2023-11-19T00:23:08;12.15;;;4.70;;
37781;SDS011;23621;50.878;4.584;2023-11-19T00:25:56;9.77;;;3.92;;
37781;SDS011;23621;50.878;4.584;2023-11-19T00:28:43;9.65;;;3.75;;
37781;SDS011;23621;50.878;4.584;2023-11-19T00:31:31;10.85;;;3.97;;
37781;SDS011;23621;50.878;4.584;2023-11-19T00:34:19;12.05;;;4.05;;
37781;SDS011;23621;50.878;4.584;2023-11-19T00:37:08;8.57;;;3.90;;
37781;SDS011;23621;50.878;4.584;2023-11-19T00:39:55;11.50;;;4.05;;
37781;SDS011;23621;50.878;4.584;2023-11-19T00:42:42;12.40;;;4.25;;
37781;SDS011;23621;50.878;4.584;2023-11-19T00:45:30;12.73;;;4.15;;
37781;SDS011;23621;50.878;4.584;2023-11-19T00:48:17;12.35;;;4.30;;
37781;SDS011;23621;50.878;4.584;2023-11-19T00:51:05;10.57;;;3.85;;
37781;SDS011;23621;50.878;4.584;2023-11-19T00:53:52;12.55;;;4.00;;
37781;SDS011;23621;50.878;4.584;2023-11-19T00:56:39;11.05;;;3.53;;
37781;SDS011;23621;50.878;4.584;2023-11-19T00:59:27;14.13;;;4.25;;
37781;SDS011;23621;50.878;4.584;2023-11-19T01:02:15;13.52;;;4.03;;
37781;SDS011;23621;50.878;4.584;2023-11-19T01:05:03;13.25;;;3.75;;
37781;SDS011;23621;50.878;4.584;2023-11-19T01:07:50;14.25;;;3.95;;
37781;SDS011;23621;50.878;4.584;2023-11-19T01:10:40;11.02;;;3.85;;
37781;SDS011;23621;50.878;4.584;2023-11-19T01:13:27;12.65;;;3.92;;
37781;SDS011;23621;50.878;4.584;2023-11-19T01:16:16;15.38;;;4.25;;
37781;SDS011;23621;50.878;4.584;2023-11-19T01:19:04;15.32;;;4.03;;
37781;SDS011;23621;50.878;4.584;2023-11-19T01:22:03;12.90;;;3.88;;
37781;SDS011;23621;50.878;4.584;2023-11-19T01:24:51;15.88;;;4.15;;
37781;SDS011;23621;50.878;4.584;2023-11-19T01:27:39;12.45;;;3.75;;
37781;SDS011;23621;50.878;4.584;2023-11-19T01:30:26;14.48;;;3.63;;
37781;SDS011;23621;50.878;4.584;2023-11-19T01:33:13;12.40;;;3.45;;
37781;SDS011;23621;50.878;4.584;2023-11-19T01:36:00;15.05;;;4.03;;
37781;SDS011;23621;50.878;4.584;2023-11-19T01:38:47;13.93;;;3.50;;
37781;SDS011;23621;50.878;4.584;2023-11-19T01:41:35;15.18;;;4.10;;
37781;SDS011;23621;50.878;4.584;2023-11-19T01:44:23;13.10;;;3.78;;
37781;SDS011;23621;50.878;4.584;2023-11-19T01:47:10;14.05;;;4.13;;
37781;SDS011;23621;50.878;4.584;2023-11-19T01:49:57;13.25;;;4.20;;
37781;SDS011;23621;50.878;4.584;2023-11-19T01:52:45;12.65;;;3.70;;
37781;SDS011;23621;50.878;4.584;2023-11-19T01:55:33;10.10;;;3.50;;
37781;SDS011;23621;50.878;4.584;2023-11-19T01:58:20;15.35;;;3.63;;
37781;SDS011;23621;50.878;4.584;2023-11-19T02:01:08;16.55;;;3.70;;
37781;SDS011;23621;50.878;4.584;2023-11-19T02:03:56;15.88;;;3.83;;
37781;SDS011;23621;50.878;4.584;2023-11-19T02:06:45;11.40;;;3.70;;
37781;SDS011;23621;50.878;4.584;2023-11-19T02:09:33;12.45;;;3.60;;
37781;SDS011;23621;50.878;4.584;2023-11-19T02:12:21;15.70;;;3.92;;
37781;SDS011;23621;50.878;4.584;2023-11-19T02:15:08;16.50;;;3.58;;
37781;SDS011;23621;50.878;4.584;2023-11-19T02:17:56;13.05;;;3.90;;
37781;SDS011;23621;50.878;4.584;2023-11-19T02:20:43;16.23;;;4.35;;
37781;SDS011;23621;50.878;4.584;2023-11-19T02:23:31;19.08;;;4.30;;
37781;SDS011;23621;50.878;4.584;2023-11-19T02:26:22;15.57;;;4.05;;
37781;SDS011;23621;50.878;4.584;2023-11-19T02:29:25;20.33;;;4.57;;
37781;SDS011;23621;50.878;4.584;2023-11-19T02:32:12;18.83;;;4.32;;
37781;SDS011;23621;50.878;4.584;2023-11-19T02:35:00;22.25;;;4.43;;
37781;SDS011;23621;50.878;4.584;2023-11-19T02:37:50;18.42;;;4.72;;
37781;SDS011;23621;50.878;4.584;2023-11-19T02:40:37;17.48;;;4.35;;
37781;SDS011;23621;50.878;4.584;2023-11-19T02:43:24;15.27;;;4.22;;
37781;SDS011;23621;50.878;4.584;2023-11-19T02:46:12;19.00;;;4.32;;
37781;SDS011;23621;50.878;4.584;2023-11-19T02:49:02;12.60;;;4.20;;
37781;SDS011;23621;50.878;4.584;2023-11-19T02:51:49;17.50;;;4.00;;
37781;SDS011;23621;50.878;4.584;2023-11-19T02:54:36;18.60;;;4.53;;
37781;SDS011;23621;50.878;4.584;2023-11-19T02:57:24;15.82;;;4.35;;
37781;SDS011;23621;50.878;4.584;2023-11-19T03:00:13;17.10;;;3.85;;
37781;SDS011;23621;50.878;4.584;2023-11-19T03:03:01;13.02;;;3.85;;
37781;SDS011;23621;50.878;4.584;2023-11-19T03:06:10;16.50;;;4.40;;
37781;SDS011;23621;50.878;4.584;2023-11-19T03:08:57;19.95;;;4.93;;
37781;SDS011;23621;50.878;4.584;2023-11-19T03:11:45;18.63;;;4.45;;
37781;SDS011;23621;50.878;4.584;2023-11-19T03:14:35;15.35;;;4.25;;
37781;SDS011;23621;50.878;4.584;2023-11-19T03:17:22;16.17;;;3.70;;
37781;SDS011;23621;50.878;4.584;2023-11-19T03:20:11;15.57;;;4.00;;
37781;SDS011;23621;50.878;4.584;2023-11-19T03:23:01;14.38;;;3.72;;
37781;SDS011;23621;50.878;4.584;2023-11-19T03:25:49;19.95;;;4.35;;
37781;SDS011;23621;50.878;4.584;2023-11-19T03:28:39;13.60;;;4.00;;
37781;SDS011;23621;50.878;4.584;2023-11-19T03:31:26;16.33;;;4.10;;
37781;SDS011;23621;50.878;4.584;2023-11-19T03:34:14;16.17;;;4.10;;
37781;SDS011;23621;50.878;4.584;2023-11-19T03:37:01;15.23;;;4.32;;
37781;SDS011;23621;50.878;4.584;2023-11-19T03:39:49;17.15;;;3.97;;
37781;SDS011;23621;50.878;4.584;2023-11-19T03:42:36;16.70;;;4.43;;
37781;SDS011;23621;50.878;4.584;2023-11-19T03:45:26;14.48;;;3.75;;
37781;SDS011;23621;50.878;4.584;2023-11-19T03:48:13;14.82;;;4.95;;
37781;SDS011;23621;50.878;4.584;2023-11-19T03:51:03;20.73;;;4.50;;
37781;SDS011;23621;50.878;4.584;2023-11-19T03:53:51;13.75;;;4.15;;
37781;SDS011;23621;50.878;4.584;2023-11-19T03:56:38;16.90;;;3.70;;
37781;SDS011;23621;50.878;4.584;2023-11-19T03:59:25;18.85;;;4.50;;
37781;SDS011;23621;50.878;4.584;2023-11-19T04:02:13;16.15;;;3.83;;
37781;SDS011;23621;50.878;4.584;2023-11-19T04:05:00;13.85;;;3.65;;
37781;SDS011;23621;50.878;4.584;2023-11-19T04:07:47;17.45;;;4.45;;
37781;SDS011;23621;50.878;4.584;2023-11-19T04:10:34;13.20;;;4.45;;
37781;SDS011;23621;50.878;4.584;2023-11-19T04:13:22;18.73;;;4.20;;
37781;SDS011;23621;50.878;4.584;2023-11-19T04:16:10;18.77;;;4.50;;
37781;SDS011;23621;50.878;4.584;2023-11-19T04:18:58;19.40;;;4.47;;
37781;SDS011;23621;50.878;4.584;2023-11-19T04:21:45;20.27;;;4.30;;
37781;SDS011;23621;50.878;4.584;2023-11-19T04:24:33;19.27;;;4.43;;
37781;SDS011;23621;50.878;4.584;2023-11-19T04:27:20;17.38;;;4.57;;
37781;SDS011;23621;50.878;4.584;2023-11-19T04:30:08;16.08;;;3.97;;
37781;SDS011;23621;50.878;4.584;2023-11-19T04:32:58;15.70;;;4.38;;
37781;SDS011;23621;50.878;4.584;2023-11-19T04:35:45;23.63;;;4.95;;
37781;SDS011;23621;50.878;4.584;2023-11-19T04:38:32;18.40;;;4.18;;
37781;SDS011;23621;50.878;4.584;2023-11-19T04:41:20;20.58;;;4.53;;
37781;SDS011;23621;50.878;4.584;2023-11-19T04:44:07;23.38;;;4.93;;
37781;SDS011;23621;50.878;4.584;2023-11-19T04:46:55;17.88;;;4.00;;
37781;SDS011;23621;50.878;4.584;2023-11-19T04:49:43;18.35;;;4.72;;
37781;SDS011;23621;50.878;4.584;2023-11-19T04:52:30;18.13;;;4.97;;
37781;SDS011;23621;50.878;4.584;2023-11-19T04:55:17;17.30;;;4.40;;
37781;SDS011;23621;50.878;4.584;2023-11-19T04:58:05;21.20;;;5.50;;
37781;SDS011;23621;50.878;4.584;2023-11-19T05:00:52;22.13;;;4.78;;
37781;SDS011;23621;50.878;4.584;2023-11-19T05:03:40;20.15;;;5.20;;
37781;SDS011;23621;50.878;4.584;2023-11-19T05:06:27;24.77;;;5.43;;
37781;SDS011;23621;50.878;4.584;2023-11-19T05:09:18;17.17;;;4.63;;
37781;SDS011;23621;50.878;4.584;2023-11-19T05:12:06;27.15;;;5.22;;
37781;SDS011;23621;50.878;4.584;2023-11-19T05:14:56;20.55;;;5.50;;
37781;SDS011;23621;50.878;4.584;2023-11-19T05:17:44;19.17;;;5.35;;
37781;SDS011;23621;50.878;4.584;2023-11-19T05:20:32;18.83;;;4.88;;
37781;SDS011;23621;50.878;4.584;2023-11-19T05:23:19;19.23;;;4.90;;
37781;SDS011;23621;50.878;4.584;2023-11-19T05:26:07;22.35;;;5.60;;
37781;SDS011;23621;50.878;4.584;2023-11-19T05:28:56;20.98;;;5.22;;
37781;SDS011;23621;50.878;4.584;2023-11-19T05:31:44;20.83;;;4.75;;
37781;SDS011;23621;50.878;4.584;2023-11-19T05:34:31;17.10;;;4.82;;
37781;SDS011;23621;50.878;4.584;2023-11-19T05:37:18;20.20;;;5.53;;
37781;SDS011;23621;50.878;4.584;2023-11-19T05:40:06;19.63;;;4.90;;
37781;SDS011;23621;50.878;4.584;2023-11-19T05:43:02;21.90;;;5.10;;
37781;SDS011;23621;50.878;4.584;2023-11-19T05:45:49;24.33;;;6.18;;
37781;SDS011;23621;50.878;4.584;2023-11-19T05:48:36;21.65;;;5.50;;
37781;SDS011;23621;50.878;4.584;2023-11-19T05:51:23;24.60;;;5.40;;
37781;SDS011;23621;50.878;4.584;2023-11-19T05:54:11;23.60;;;5.07;;
37781;SDS011;23621;50.878;4.584;2023-11-19T05:57:00;22.30;;;4.97;;
37781;SDS011;23621;50.878;4.584;2023-11-19T05:59:47;21.98;;;5.60;;
37781;SDS011;23621;50.878;4.584;2023-11-19T06:02:35;22.48;;;6.07;;
37781;SDS011;23621;50.878;4.584;2023-11-19T06:05:24;23.80;;;5.80;;
37781;SDS011;23621;50.878;4.584;2023-11-19T06:08:11;24.38;;;4.85;;
37781;SDS011;23621;50.878;4.584;2023-11-19T06:10:59;25.85;;;6.20;;
37781;SDS011;23621;50.878;4.584;2023-11-19T06:13:48;25.67;;;5.53;;
37781;SDS011;23621;50.878;4.584;2023-11-19T06:16:38;26.50;;;5.47;;
37781;SDS011;23621;50.878;4.584;2023-11-19T06:19:27;23.67;;;5.70;;
37781;SDS011;23621;50.878;4.584;2023-11-19T06:22:16;26.77;;;5.78;;
37781;SDS011;23621;50.878;4.584;2023-11-19T06:25:04;22.95;;;5.20;;
37781;SDS011;23621;50.878;4.584;2023-11-19T06:27:54;27.55;;;5.90;;
37781;SDS011;23621;50.878;4.584;2023-11-19T06:30:42;26.20;;;5.78;;
37781;SDS011;23621;50.878;4.584;2023-11-19T06:33:30;21.17;;;5.18;;
37781;SDS011;23621;50.878;4.584;2023-11-19T06:36:18;25.15;;;5.57;;
37781;SDS011;23621;50.878;4.584;2023-11-19T06:39:05;23.08;;;5.22;;
37781;SDS011;23621;50.878;4.584;2023-11-19T06:41:52;25.00;;;5.85;;
37781;SDS011;23621;50.878;4.584;2023-11-19T06:44:40;25.10;;;5.70;;
37781;SDS011;23621;50.878;4.584;2023-11-19T06:47:27;23.35;;;5.18;;
37781;SDS011;23621;50.878;4.584;2023-11-19T06:50:15;23.10;;;5.20;;
37781;SDS011;23621;50.878;4.584;2023-11-19T06:53:02;19.25;;;5.07;;
37781;SDS011;23621;50.878;4.584;2023-11-19T06:55:51;22.20;;;5.80;;
37781;SDS011;23621;50.878;4.584;2023-11-19T06:58:39;21.13;;;5.32;;
37781;SDS011;23621;50.878;4.584;2023-11-19T07:01:26;17.70;;;5.40;;
37781;SDS011;23621;50.878;4.584;2023-11-19T07:04:14;24.98;;;5.22;;
37781;SDS011;23621;50.878;4.584;2023-11-19T07:07:01;23.70;;;5.20;;
37781;SDS011;23621;50.878;4.584;2023-11-19T07:09:48;18.65;;;4.80;;
37781;SDS011;23621;50.878;4.584;2023-11-19T07:12:37;20.98;;;5.00;;
37781;SDS011;23621;50.878;4.584;2023-11-19T07:15:24;22.95;;;5.28;;
37781;SDS011;23621;50.878;4.584;2023-11-19T07:18:11;21.58;;;5.13;;
37781;SDS011;23621;50.878;4.584;2023-11-19T07:20:58;26.27;;;5.22;;
37781;SDS011;23621;50.878;4.584;2023-11-19T07:23:46;23.40;;;5.47;;
37781;SDS011;23621;50.878;4.584;2023-11-19T07:26:33;20.42;;;5.28;;
37781;SDS011;23621;50.878;4.584;2023-11-19T07:29:21;23.75;;;4.95;;
37781;SDS011;23621;50.878;4.584;2023-11-19T07:32:11;23.67;;;5.70;;
37781;SDS011;23621;50.878;4.584;2023-11-19T07:35:00;21.77;;;5.45;;
37781;SDS011;23621;50.878;4.584;2023-11-19T07:37:47;17.63;;;4.78;;
37781;SDS011;23621;50.878;4.584;2023-11-19T07:40:36;25.95;;;5.68;;
37781;SDS011;23621;50.878;4.584;2023-11-19T07:43:24;23.35;;;5.60;;
37781;SDS011;23621;50.878;4.584;2023-11-19T07:46:11;23.08;;;5.30;;
37781;SDS011;23621;50.878;4.584;2023-11-19T07:48:59;31.08;;;6.22;;
37781;SDS011;23621;50.878;4.584;2023-11-19T07:51:49;26.40;;;6.28;;
37781;SDS011;23621;50.878;4.584;2023-11-19T07:54:36;22.45;;;5.45;;
37781;SDS011;23621;50.878;4.584;2023-11-19T07:57:24;19.65;;;5.15;;
37781;SDS011;23621;50.878;4.584;2023-11-19T08:00:11;26.85;;;5.97;;
37781;SDS011;23621;50.878;4.584;2023-11-19T08:02:59;25.88;;;5.63;;
37781;SDS011;23621;50.878;4.584;2023-11-19T08:05:47;23.70;;;5.97;;
37781;SDS011;23621;50.878;4.584;2023-11-19T08:08:34;29.40;;;5.90;;
37781;SDS011;23621;50.878;4.584;2023-11-19T08:11:22;23.60;;;6.35;;
37781;SDS011;23621;50.878;4.584;2023-11-19T08:14:09;19.52;;;5.47;;
37781;SDS011;23621;50.878;4.584;2023-11-19T08:16:57;23.63;;;5.97;;
37781;SDS011;23621;50.878;4.584;2023-11-19T08:19:44;23.50;;;5.88;;
37781;SDS011;23621;50.878;4.584;2023-11-19T08:22:31;21.05;;;5.55;;
37781;SDS011;23621;50.878;4.584;2023-11-19T08:25:19;19.58;;;5.43;;
37781;SDS011;23621;50.878;4.584;2023-11-19T08:28:06;21.52;;;4.93;;
37781;SDS011;23621;50.878;4.584;2023-11-19T08:30:53;19.90;;;5.22;;
37781;SDS011;23621;50.878;4.584;2023-11-19T08:33:40;19.17;;;4.72;;
37781;SDS011;23621;50.878;4.584;2023-11-19T08:36:28;19.75;;;5.55;;
37781;SDS011;23621;50.878;4.584;2023-11-19T08:39:15;22.42;;;4.75;;
37781;SDS011;23621;50.878;4.584;2023-11-19T08:42:12;21.48;;;4.78;;
37781;SDS011;23621;50.878;4.584;2023-11-19T08:45:00;18.95;;;5.20;;
37781;SDS011;23621;50.878;4.584;2023-11-19T08:47:47;19.70;;;4.85;;
37781;SDS011;23621;50.878;4.584;2023-11-19T08:50:34;17.90;;;5.10;;
37781;SDS011;23621;50.878;4.584;2023-11-19T08:53:22;17.60;;;4.43;;
37781;SDS011;23621;50.878;4.584;2023-11-19T08:56:09;18.58;;;4.25;;
37781;SDS011;23621;50.878;4.584;2023-11-19T08:58:57;22.40;;;5.00;;
37781;SDS011;23621;50.878;4.584;2023-11-19T09:01:44;16.95;;;4.75;;
37781;SDS011;23621;50.878;4.584;2023-11-19T09:04:32;19.80;;;5.28;;
37781;SDS011;23621;50.878;4.584;2023-11-19T09:07:20;26.13;;;5.13;;
37781;SDS011;23621;50.878;4.584;2023-11-19T09:10:08;19.33;;;5.03;;
37781;SDS011;23621;50.878;4.584;2023-11-19T09:12:55;19.30;;;4.60;;
37781;SDS011;23621;50.878;4.584;2023-11-19T09:15:44;18.67;;;4.97;;
37781;SDS011;23621;50.878;4.584;2023-11-19T09:18:32;21.35;;;4.75;;
37781;SDS011;23621;50.878;4.584;2023-11-19T09:21:19;18.10;;;4.25;;
37781;SDS011;23621;50.878;4.584;2023-11-19T09:24:06;20.35;;;5.07;;
37781;SDS011;23621;50.878;4.584;2023-11-19T09:26:54;20.15;;;4.55;;
37781;SDS011;23621;50.878;4.584;2023-11-19T09:29:43;16.27;;;4.18;;
37781;SDS011;23621;50.878;4.584;2023-11-19T09:32:32;20.85;;;5.18;;
37781;SDS011;23621;50.878;4.584;2023-11-19T09:35:20;16.15;;;4.57;;
37781;SDS011;23621;50.878;4.584;2023-11-19T09:38:07;17.98;;;5.10;;
37781;SDS011;23621;50.878;4.584;2023-11-19T09:40:55;21.17;;;5.15;;
37781;SDS011;23621;50.878;4.584;2023-11-19T09:43:44;21.65;;;5.15;;
37781;SDS011;23621;50.878;4.584;2023-11-19T09:46:32;16.92;;;4.40;;
37781;SDS011;23621;50.878;4.584;2023-11-19T09:49:21;15.20;;;4.03;;
37781;SDS011;23621;50.878;4.584;2023-11-19T09:52:14;16.63;;;4.75;;
37781;SDS011;23621;50.878;4.584;2023-11-19T09:55:01;16.73;;;4.80;;
37781;SDS011;23621;50.878;4.584;2023-11-19T09:57:48;19.90;;;4.70;;
37781;SDS011;23621;50.878;4.584;2023-11-19T10:00:37;21.10;;;4.82;;
37781;SDS011;23621;50.878;4.584;2023-11-19T10:03:34;15.65;;;4.07;;
37781;SDS011;23621;50.878;4.584;2023-11-19T10:06:24;18.73;;;4.78;;
37781;SDS011;23621;50.878;4.584;2023-11-19T10:09:13;19.33;;;4.80;;
37781;SDS011;23621;50.878;4.584;2023-11-19T10:12:02;13.07;;;4.13;;
37781;SDS011;23621;50.878;4.584;2023-11-19T10:14:54;18.17;;;4.35;;
37781;SDS011;23621;50.878;4.584;2023-11-19T10:17:44;17.88;;;4.55;;
37781;SDS011;23621;50.878;4.584;2023-11-19T10:20:35;18.85;;;4.55;;
37781;SDS011;23621;50.878;4.584;2023-11-19T10:23:28;16.77;;;4.65;;
37781;SDS011;23621;50.878;4.584;2023-11-19T10:26:16;15.93;;;4.20;;
37781;SDS011;23621;50.878;4.584;2023-11-19T10:29:03;16.27;;;4.63;;
37781;SDS011;23621;50.878;4.584;2023-11-19T10:31:57;19.45;;;4.78;;
37781;SDS011;23621;50.878;4.584;2023-11-19T10:35:05;21.10;;;4.93;;
37781;SDS011;23621;50.878;4.584;2023-11-19T10:37:54;17.60;;;4.75;;
37781;SDS011;23621;50.878;4.584;2023-11-19T10:40:41;20.95;;;5.43;;
37781;SDS011;23621;50.878;4.584;2023-11-19T10:43:29;20.30;;;5.53;;
37781;SDS011;23621;50.878;4.584;2023-11-19T10:46:16;22.42;;;5.30;;
37781;SDS011;23621;50.878;4.584;2023-11-19T10:49:07;15.68;;;4.50;;
37781;SDS011;23621;50.878;4.584;2023-11-19T10:51:56;20.15;;;4.80;;
37781;SDS011;23621;50.878;4.584;2023-11-19T10:54:45;18.67;;;4.22;;
37781;SDS011;23621;50.878;4.584;2023-11-19T10:57:38;13.50;;;4.25;;
37781;SDS011;23621;50.878;4.584;2023-11-19T11:00:51;16.02;;;3.90;;
37781;SDS011;23621;50.878;4.584;2023-11-19T11:03:44;14.18;;;4.22;;
37781;SDS011;23621;50.878;4.584;2023-11-19T11:06:33;13.88;;;3.17;;
37781;SDS011;23621;50.878;4.584;2023-11-19T11:09:21;16.35;;;4.50;;
37781;SDS011;23621;50.878;4.584;2023-11-19T11:12:10;16.65;;;4.47;;
37781;SDS011;23621;50.878;4.584;2023-11-19T11:14:58;14.65;;;4.07;;
37781;SDS011;23621;50.878;4.584;2023-11-19T11:17:46;17.30;;;4.25;;
37781;SDS011;23621;50.878;4.584;2023-11-19T11:20:35;12.68;;;4.60;;
37781;SDS011;23621;50.878;4.584;2023-11-19T11:33:32;14.63;;;4.18;;
37781;SDS011;23621;50.878;4.584;2023-11-19T11:36:09;16.42;;;4.47;;
37781;SDS011;23621;50.878;4.584;2023-11-19T11:39:09;18.00;;;4.18;;
37781;SDS011;23621;50.878;4.584;2023-11-19T11:45:04;21.10;;;4.85;;
37781;SDS011;23621;50.878;4.584;2023-11-19T11:50:50;20.48;;;5.18;;
37781;SDS011;23621;50.878;4.584;2023-11-19T11:53:43;18.00;;;4.85;;
37781;SDS011;23621;50.878;4.584;2023-11-19T11:56:36;16.45;;;4.72;;
37781;SDS011;23621;50.878;4.584;2023-11-19T11:59:24;20.80;;;5.38;;
37781;SDS011;23621;50.878;4.584;2023-11-19T12:02:13;18.98;;;4.85;;
37781;SDS011;23621;50.878;4.584;2023-11-19T12:05:03;15.90;;;5.28;;
37781;SDS011;23621;50.878;4.584;2023-11-19T12:08:02;15.52;;;4.20;;
37781;SDS011;23621;50.878;4.584;2023-11-19T12:10:53;14.85;;;4.57;;
37781;SDS011;23621;50.878;4.584;2023-11-19T12:13:53;14.43;;;4.07;;
37781;SDS011;23621;50.878;4.584;2023-11-19T12:16:49;17.35;;;4.78;;
37781;SDS011;23621;50.878;4.584;2023-11-19T12:19:40;14.93;;;4.10;;
37781;SDS011;23621;50.878;4.584;2023-11-19T12:22:28;16.08;;;4.30;;
37781;SDS011;23621;50.878;4.584;2023-11-19T12:25:16;12.30;;;4.40;;
37781;SDS011;23621;50.878;4.584;2023-11-19T12:28:05;14.75;;;3.85;;
37781;SDS011;23621;50.878;4.584;2023-11-19T12:30:53;12.70;;;3.67;;
37781;SDS011;23621;50.878;4.584;2023-11-19T12:33:40;13.65;;;3.47;;
37781;SDS011;23621;50.878;4.584;2023-11-19T12:36:29;12.25;;;3.95;;
37781;SDS011;23621;50.878;4.584;2023-11-19T12:39:16;16.23;;;4.10;;
37781;SDS011;23621;50.878;4.584;2023-11-19T12:42:04;16.80;;;3.90;;
37781;SDS011;23621;50.878;4.584;2023-11-19T12:44:54;15.05;;;3.63;;
37781;SDS011;23621;50.878;4.584;2023-11-19T12:47:43;17.98;;;4.43;;
37781;SDS011;23621;50.878;4.584;2023-11-19T12:50:49;12.93;;;4.22;;
37781;SDS011;23621;50.878;4.584;2023-11-19T12:53:50;13.85;;;4.25;;
37781;SDS011;23621;50.878;4.584;2023-11-19T12:56:51;15.15;;;3.95;;
37781;SDS011;23621;50.878;4.584;2023-11-19T12:59:41;15.68;;;4.32;;
37781;SDS011;23621;50.878;4.584;2023-11-19T13:02:45;15.23;;;4.53;;
37781;SDS011;23621;50.878;4.584;2023-11-19T13:05:36;19.58;;;4.65;;
37781;SDS011;23621;50.878;4.584;2023-11-19T13:08:24;19.17;;;5.22;;
37781;SDS011;23621;50.878;4.584;2023-11-19T13:11:12;20.67;;;4.70;;
37781;SDS011;23621;50.878;4.584;2023-11-19T13:14:00;13.73;;;4.20;;
37781;SDS011;23621;50.878;4.584;2023-11-19T13:16:52;20.08;;;4.90;;
37781;SDS011;23621;50.878;4.584;2023-11-19T13:19:40;15.23;;;4.30;;
37781;SDS011;23621;50.878;4.584;2023-11-19T13:22:28;19.80;;;4.90;;
37781;SDS011;23621;50.878;4.584;2023-11-19T13:25:15;18.60;;;4.53;;
37781;SDS011;23621;50.878;4.584;2023-11-19T13:28:02;17.65;;;4.53;;
37781;SDS011;23621;50.878;4.584;2023-11-19T13:30:50;18.00;;;4.20;;
37781;SDS011;23621;50.878;4.584;2023-11-19T13:33:38;15.55;;;4.40;;
37781;SDS011;23621;50.878;4.584;2023-11-19T13:36:25;18.13;;;4.47;;
37781;SDS011;23621;50.878;4.584;2023-11-19T13:39:13;12.68;;;4.22;;
37781;SDS011;23621;50.878;4.584;2023-11-19T13:42:09;21.45;;;4.72;;
37781;SDS011;23621;50.878;4.584;2023-11-19T13:45:00;15.90;;;4.43;;
37781;SDS011;23621;50.878;4.584;2023-11-19T13:47:47;18.20;;;4.70;;
37781;SDS011;23621;50.878;4.584;2023-11-19T13:50:34;16.42;;;3.90;;
37781;SDS011;23621;50.878;4.584;2023-11-19T13:53:22;18.10;;;4.32;;
37781;SDS011;23621;50.878;4.584;2023-11-19T13:56:10;15.55;;;4.43;;
37781;SDS011;23621;50.878;4.584;2023-11-19T13:58:57;17.02;;;4.10;;
37781;SDS011;23621;50.878;4.584;2023-11-19T14:01:45;16.33;;;4.43;;
37781;SDS011;23621;50.878;4.584;2023-11-19T14:04:32;16.27;;;4.65;;
37781;SDS011;23621;50.878;4.584;2023-11-19T14:07:20;17.02;;;4.80;;
37781;SDS011;23621;50.878;4.584;2023-11-19T14:10:08;15.15;;;4.78;;
37781;SDS011;23621;50.878;4.584;2023-11-19T14:12:58;18.13;;;4.80;;
37781;SDS011;23621;50.878;4.584;2023-11-19T14:15:45;17.73;;;4.60;;
37781;SDS011;23621;50.878;4.584;2023-11-19T14:18:36;17.45;;;4.60;;
37781;SDS011;23621;50.878;4.584;2023-11-19T14:21:26;16.98;;;4.90;;
37781;SDS011;23621;50.878;4.584;2023-11-19T14:24:14;16.50;;;4.90;;
37781;SDS011;23621;50.878;4.584;2023-11-19T14:27:01;15.40;;;4.53;;
37781;SDS011;23621;50.878;4.584;2023-11-19T14:29:49;20.35;;;4.78;;
37781;SDS011;23621;50.878;4.584;2023-11-19T14:32:37;16.52;;;4.43;;
37781;SDS011;23621;50.878;4.584;2023-11-19T14:35:26;19.08;;;4.65;;
37781;SDS011;23621;50.878;4.584;2023-11-19T14:38:13;21.10;;;4.95;;
37781;SDS011;23621;50.878;4.584;2023-11-19T14:41:00;17.70;;;5.35;;
37781;SDS011;23621;50.878;4.584;2023-11-19T14:43:47;18.80;;;4.93;;
37781;SDS011;23621;50.878;4.584;2023-11-19T14:46:35;14.77;;;4.57;;
37781;SDS011;23621;50.878;4.584;2023-11-19T14:49:22;14.27;;;4.00;;
37781;SDS011;23621;50.878;4.584;2023-11-19T14:52:10;21.85;;;5.00;;
37781;SDS011;23621;50.878;4.584;2023-11-19T14:55:01;18.75;;;4.85;;
37781;SDS011;23621;50.878;4.584;2023-11-19T14:57:49;17.05;;;4.55;;
37781;SDS011;23621;50.878;4.584;2023-11-19T15:00:52;23.13;;;5.97;;
37781;SDS011;23621;50.878;4.584;2023-11-19T15:03:39;20.60;;;5.18;;
37781;SDS011;23621;50.878;4.584;2023-11-19T15:06:30;16.23;;;5.30;;
37781;SDS011;23621;50.878;4.584;2023-11-19T15:09:19;13.20;;;4.55;;
37781;SDS011;23621;50.878;4.584;2023-11-19T15:12:07;15.07;;;4.50;;
37781;SDS011;23621;50.878;4.584;2023-11-19T15:14:55;17.50;;;4.88;;
37781;SDS011;23621;50.878;4.584;2023-11-19T15:17:43;13.90;;;4.88;;
37781;SDS011;23621;50.878;4.584;2023-11-19T15:20:30;16.73;;;4.45;;
37781;SDS011;23621;50.878;4.584;2023-11-19T15:23:18;19.27;;;5.30;;
37781;SDS011;23621;50.878;4.584;2023-11-19T15:26:06;18.60;;;5.63;;
37781;SDS011;23621;50.878;4.584;2023-11-19T15:28:57;17.00;;;4.25;;
37781;SDS011;23621;50.878;4.584;2023-11-19T15:31:45;18.38;;;4.55;;
37781;SDS011;23621;50.878;4.584;2023-11-19T15:34:32;20.63;;;5.28;;
37781;SDS011;23621;50.878;4.584;2023-11-19T15:37:20;16.83;;;5.10;;
37781;SDS011;23621;50.878;4.584;2023-11-19T15:40:07;16.20;;;4.57;;
37781;SDS011;23621;50.878;4.584;2023-11-19T15:42:56;19.83;;;4.63;;
37781;SDS011;23621;50.878;4.584;2023-11-19T15:45:44;23.33;;;5.00;;
37781;SDS011;23621;50.878;4.584;2023-11-19T15:48:31;18.30;;;4.75;;
37781;SDS011;23621;50.878;4.584;2023-11-19T15:51:18;17.45;;;4.07;;
37781;SDS011;23621;50.878;4.584;2023-11-19T15:54:06;16.40;;;4.43;;
37781;SDS011;23621;50.878;4.584;2023-11-19T15:56:54;16.45;;;4.40;;
37781;SDS011;23621;50.878;4.584;2023-11-19T15:59:41;14.32;;;4.28;;
37781;SDS011;23621;50.878;4.584;2023-11-19T16:02:30;17.02;;;4.65;;
37781;SDS011;23621;50.878;4.584;2023-11-19T16:05:17;19.63;;;5.40;;
37781;SDS011;23621;50.878;4.584;2023-11-19T16:08:05;21.13;;;4.57;;
37781;SDS011;23621;50.878;4.584;2023-11-19T16:10:52;17.77;;;4.57;;
37781;SDS011;23621;50.878;4.584;2023-11-19T16:13:40;15.27;;;4.43;;
37781;SDS011;23621;50.878;4.584;2023-11-19T16:16:27;22.70;;;5.82;;
37781;SDS011;23621;50.878;4.584;2023-11-19T16:19:15;19.10;;;5.07;;
37781;SDS011;23621;50.878;4.584;2023-11-19T16:22:02;14.75;;;4.40;;
37781;SDS011;23621;50.878;4.584;2023-11-19T16:24:56;16.80;;;4.88;;
37781;SDS011;23621;50.878;4.584;2023-11-19T16:27:44;15.73;;;4.85;;
37781;SDS011;23621;50.878;4.584;2023-11-19T16:30:31;18.58;;;4.45;;
37781;SDS011;23621;50.878;4.584;2023-11-19T16:33:18;13.48;;;4.35;;
37781;SDS011;23621;50.878;4.584;2023-11-19T16:36:16;13.45;;;3.95;;
37781;SDS011;23621;50.878;4.584;2023-11-19T16:39:03;14.88;;;4.65;;
37781;SDS011;23621;50.878;4.584;2023-11-19T16:41:54;17.10;;;4.47;;
37781;SDS011;23621;50.878;4.584;2023-11-19T16:44:41;16.33;;;4.50;;
37781;SDS011;23621;50.878;4.584;2023-11-19T16:47:30;16.02;;;4.40;;
37781;SDS011;23621;50.878;4.584;2023-11-19T16:50:18;12.77;;;4.45;;
37781;SDS011;23621;50.878;4.584;2023-11-19T16:53:06;14.80;;;4.38;;
37781;SDS011;23621;50.878;4.584;2023-11-19T16:55:53;14.48;;;4.00;;
37781;SDS011;23621;50.878;4.584;2023-11-19T16:58:40;14.30;;;4.20;;